Time;durP1;ratioP1;P1;durP2;ratioP2;P2;SDS_P1;SDS_P2;PMS_P1;PMS_P2;Temp;Humidity;BMP_temperature;BMP_pressure;BME280_temperature;BME280_humidity;BME280_pressure;Samples;Min_cycle;Max_cycle;Signal;HPM_P1;HPM_P2
2021/08/03 00:00:08;;;;;;;0.75;0.73;;;;;19.70;101351.00;;;;5045859;28;20192;-76
2021/08/03 00:02:38;;;;;;;0.77;0.75;;;;;19.70;101345.00;;;;5045044;28;20206;-77
2021/08/03 00:05:07;;;;;;;1.73;0.90;;;;;19.70;101336.00;;;;5049127;28;20214;-76
2021/08/03 00:07:35;;;;;;;1.25;0.60;;;;;19.70;101328.00;;;;5034483;28;20208;-77
2021/08/03 00:10:07;;;;;;;1.10;0.50;;;;;19.60;101325.00;;;;5041977;28;20295;-76
2021/08/03 00:12:34;;;;;;;0.75;0.63;;;;;19.70;101321.00;;;;5047656;28;20286;-76
2021/08/03 00:15:02;;;;;;;1.50;1.05;;;;;19.70;101329.00;;;;5039451;28;20196;-76
2021/08/03 00:17:32;;;;;;;1.25;0.77;;;;;19.60;101330.00;;;;5028879;28;20203;-77
2021/08/03 00:20:00;;;;;;;4.57;1.08;;;;;19.60;101335.00;;;;5035223;28;20722;-76
2021/08/03 00:22:27;;;;;;;1.75;0.82;;;;;19.60;101326.00;;;;5038542;28;20198;-76
2021/08/03 00:24:54;;;;;;;1.15;0.95;;;;;19.60;101328.00;;;;5047684;28;20195;-76
2021/08/03 00:27:22;;;;;;;0.73;0.50;;;;;19.60;101325.00;;;;5044678;28;20258;-76
2021/08/03 00:29:50;;;;;;;2.17;0.70;;;;;19.60;101320.00;;;;5032197;28;20541;-76
2021/08/03 00:32:19;;;;;;;0.90;0.50;;;;;19.60;101328.00;;;;5047755;28;20192;-76
2021/08/03 00:34:47;;;;;;;1.10;0.60;;;;;19.60;101325.00;;;;5038448;28;20228;-76
2021/08/03 00:37:16;;;;;;;1.55;0.90;;;;;19.60;101329.00;;;;5044609;28;20199;-76
2021/08/03 00:39:43;;;;;;;2.22;0.77;;;;;19.60;101324.00;;;;5047395;28;20286;-77
2021/08/03 00:42:10;;;;;;;0.70;0.65;;;;;19.50;101322.00;;;;5038732;28;20745;-76
2021/08/03 00:44:39;;;;;;;1.35;0.68;;;;;19.50;101321.00;;;;5043219;28;20192;-76
2021/08/03 00:47:07;;;;;;;0.98;0.57;;;;;19.50;101320.00;;;;5044760;28;20200;-76
2021/08/03 00:49:34;;;;;;;0.82;0.40;;;;;19.50;101323.00;;;;5042662;28;20232;-76
2021/08/03 00:52:03;;;;;;;1.20;0.55;;;;;19.40;101318.00;;;;5047529;28;20192;-76
2021/08/03 00:54:31;;;;;;;1.05;0.68;;;;;19.40;101317.00;;;;5035988;28;20200;-76
2021/08/03 00:56:58;;;;;;;0.90;0.88;;;;;19.40;101323.00;;;;5038465;28;20192;-76
2021/08/03 00:59:26;;;;;;;1.13;0.60;;;;;19.40;101308.00;;;;5036515;28;20202;-76
2021/08/03 01:01:53;;;;;;;1.35;0.50;;;;;19.40;101306.00;;;;5032697;28;20208;-76
2021/08/03 01:04:20;;;;;;;0.88;0.55;;;;;19.40;101312.00;;;;5036583;28;20227;-76
2021/08/03 01:06:53;;;;;;;0.80;0.57;;;;;19.40;101306.00;;;;5037521;28;20199;-77
2021/08/03 01:09:27;;;;;;;0.90;0.70;;;;;19.30;101311.00;;;;5033079;28;20220;-76
2021/08/03 01:12:00;;;;;;;0.65;0.50;;;;;19.30;101310.00;;;;5035067;28;20204;-77
2021/08/03 01:14:32;;;;;;;1.10;0.35;;;;;19.30;101308.00;;;;5037302;28;20200;-76
2021/08/03 01:17:05;;;;;;;1.42;0.45;;;;;19.30;101304.00;;;;5044805;28;20634;-76
2021/08/03 01:19:46;;;;;;;1.45;0.65;;;;;19.30;101312.00;;;;5035946;28;20208;-76
2021/08/03 01:22:26;;;;;;;1.98;0.60;;;;;19.30;101307.00;;;;5049388;28;20203;-76
2021/08/03 01:25:14;;;;;;;1.08;0.52;;;;;19.20;101317.00;;;;5049462;28;20206;-76
2021/08/03 01:28:15;;;;;;;1.08;0.50;;;;;19.10;101310.00;;;;5046275;28;20223;-76
2021/08/03 01:30:46;;;;;;;1.02;0.65;;;;;19.20;101308.00;;;;5038777;28;20223;-76
2021/08/03 01:33:19;;;;;;;0.85;0.60;;;;;19.20;101309.00;;;;5040721;28;20734;-76
2021/08/03 01:35:48;;;;;;;2.28;0.65;;;;;19.20;101309.00;;;;5032722;28;20228;-76
2021/08/03 01:38:19;;;;;;;0.70;0.52;;;;;19.20;101306.00;;;;5050300;28;20206;-76
2021/08/03 01:40:50;;;;;;;0.30;0.30;;;;;19.20;101307.00;;;;5043456;28;20196;-76
2021/08/03 01:43:19;;;;;;;1.20;0.70;;;;;19.20;101312.00;;;;5043717;28;20199;-76
2021/08/03 01:45:48;;;;;;;2.92;0.70;;;;;19.20;101306.00;;;;5042633;28;20188;-76
2021/08/03 01:48:16;;;;;;;0.65;0.50;;;;;19.20;101305.00;;;;5036239;28;20227;-76
2021/08/03 01:50:45;;;;;;;0.95;0.50;;;;;19.20;101303.00;;;;5034451;28;20211;-76
2021/08/03 01:53:13;;;;;;;1.20;0.60;;;;;19.20;101300.00;;;;5050299;28;20227;-76
2021/08/03 01:55:40;;;;;;;1.50;0.50;;;;;19.20;101300.00;;;;5048852;28;20241;-76
2021/08/03 01:58:08;;;;;;;1.33;0.40;;;;;19.20;101302.00;;;;5044736;28;20600;-76
2021/08/03 02:00:37;;;;;;;1.02;0.70;;;;;19.20;101295.00;;;;5038600;28;20220;-76
2021/08/03 02:03:05;;;;;;;1.27;0.43;;;;;19.20;101300.00;;;;5049752;28;20203;-77
2021/08/03 02:05:32;;;;;;;0.70;0.38;;;;;19.20;101301.00;;;;5042151;28;20555;-76
2021/08/03 02:07:59;;;;;;;0.98;0.47;;;;;19.20;101300.00;;;;5050810;28;20191;-76
2021/08/03 02:10:27;;;;;;;0.60;0.50;;;;;19.20;101300.00;;;;5039330;28;20208;-76
2021/08/03 02:12:54;;;;;;;0.80;0.47;;;;;19.20;101296.00;;;;5048286;28;20608;-76
2021/08/03 02:15:22;;;;;;;1.05;0.63;;;;;19.20;101294.00;;;;5037354;28;20211;-76
2021/08/03 02:17:51;;;;;;;1.92;0.52;;;;;19.20;101296.00;;;;5048919;28;20206;-76
2021/08/03 02:20:18;;;;;;;2.83;0.70;;;;;19.20;101295.00;;;;5043864;28;20204;-76
2021/08/03 02:22:46;;;;;;;1.23;0.68;;;;;19.20;101296.00;;;;5044708;28;20200;-76
2021/08/03 02:25:14;;;;;;;0.60;0.43;;;;;19.20;101300.00;;;;5035044;28;20231;-76
2021/08/03 02:27:41;;;;;;;1.02;0.40;;;;;19.20;101299.00;;;;5030769;28;20496;-77
2021/08/03 02:30:11;;;;;;;2.10;0.35;;;;;19.20;101295.00;;;;5049334;28;20224;-76
2021/08/03 02:32:45;;;;;;;1.73;0.70;;;;;19.10;101299.00;;;;5040505;28;20204;-76
2021/08/03 02:35:16;;;;;;;0.50;0.30;;;;;19.10;101294.00;;;;5033726;28;20227;-76
2021/08/03 02:37:50;;;;;;;0.70;0.43;;;;;19.10;101299.00;;;;5049730;28;20207;-76
2021/08/03 02:40:17;;;;;;;1.30;0.65;;;;;19.10;101294.00;;;;5043864;28;20212;-76
2021/08/03 02:42:46;;;;;;;0.40;0.30;;;;;19.10;101293.00;;;;5043250;28;20203;-76
2021/08/03 02:45:17;;;;;;;0.45;0.40;;;;;19.10;101293.00;;;;5037355;28;20195;-76
2021/08/03 02:47:48;;;;;;;0.68;0.43;;;;;19.10;101290.00;;;;5050013;28;20249;-76
2021/08/03 02:50:17;;;;;;;0.98;0.60;;;;;19.10;101294.00;;;;5039327;28;20218;-76
2021/08/03 02:52:47;;;;;;;2.35;0.65;;;;;19.10;101286.00;;;;5042669;28;20211;-76
2021/08/03 02:55:20;;;;;;;0.88;0.60;;;;;19.10;101293.00;;;;5043592;28;20195;-76
2021/08/03 02:57:51;;;;;;;0.80;0.50;;;;;19.10;101285.00;;;;5049263;28;20199;-76
2021/08/03 03:00:19;;;;;;;0.80;0.68;;;;;19.10;101286.00;;;;5040320;28;20196;-77
2021/08/03 03:02:48;;;;;;;1.70;0.82;;;;;19.10;101289.00;;;;5048450;28;20204;-76
2021/08/03 03:05:20;;;;;;;2.55;0.80;;;;;19.00;101286.00;;;;5048404;28;20692;-76
2021/08/03 03:07:50;;;;;;;3.67;0.90;;;;;19.00;101287.00;;;;5033870;28;20219;-77
2021/08/03 03:10:23;;;;;;;1.48;1.08;;;;;19.00;101293.00;;;;5043010;28;20788;-76
2021/08/03 03:12:53;;;;;;;1.63;0.90;;;;;19.00;101288.00;;;;5043150;28;20210;-76
2021/08/03 03:15:21;;;;;;;1.65;0.88;;;;;19.00;101280.00;;;;5029969;28;20207;-76
2021/08/03 03:17:49;;;;;;;2.67;0.90;;;;;19.10;101288.00;;;;5042348;28;20204;-76
2021/08/03 03:20:20;;;;;;;4.15;0.82;;;;;19.00;101279.00;;;;5038893;28;20192;-76
2021/08/03 03:22:49;;;;;;;1.05;0.65;;;;;19.00;101283.00;;;;5038160;28;20198;-76
2021/08/03 03:25:23;;;;;;;2.15;1.08;;;;;19.00;101290.00;;;;5049327;28;20241;-76
2021/08/03 03:27:54;;;;;;;1.17;1.00;;;;;19.00;101285.00;;;;5045446;28;20203;-76
2021/08/03 03:30:21;;;;;;;1.70;0.75;;;;;19.00;101281.00;;;;5035871;28;20227;-76
2021/08/03 03:32:49;;;;;;;1.23;0.90;;;;;19.00;101291.00;;;;5029781;28;20207;-76
2021/08/03 03:35:22;;;;;;;0.90;0.75;;;;;19.00;101286.00;;;;5036877;28;20235;-76
2021/08/03 03:37:52;;;;;;;1.05;0.88;;;;;19.00;101287.00;;;;5048736;28;20245;-76
2021/08/03 03:40:21;;;;;;;0.90;0.60;;;;;19.00;101283.00;;;;5044507;28;20196;-77
2021/08/03 03:42:51;;;;;;;0.90;0.70;;;;;19.00;101283.00;;;;5046185;28;20207;-77
2021/08/03 03:45:18;;;;;;;1.27;0.88;;;;;19.00;101278.00;;;;5041577;28;20293;-77
2021/08/03 03:47:54;;;;;;;1.02;0.80;;;;;18.90;101279.00;;;;5044035;28;20238;-76
2021/08/03 03:50:28;;;;;;;1.58;0.88;;;;;18.90;101279.00;;;;5036084;28;20790;-76
2021/08/03 03:53:00;;;;;;;1.92;1.23;;;;;18.90;101279.00;;;;5042051;28;20222;-76
2021/08/03 03:55:28;;;;;;;3.13;1.42;;;;;18.90;101281.00;;;;5042598;28;20196;-77
2021/08/03 03:57:56;;;;;;;0.95;0.60;;;;;18.90;101280.00;;;;5030496;28;20200;-76
2021/08/03 04:00:23;;;;;;;3.42;1.00;;;;;18.90;101277.00;;;;5041590;28;20204;-76
2021/08/03 04:02:52;;;;;;;2.13;1.20;;;;;18.90;101279.00;;;;5046861;28;20214;-76
2021/08/03 04:05:19;;;;;;;1.88;1.63;;;;;18.90;101269.00;;;;5043101;28;20686;-76
2021/08/03 04:07:51;;;;;;;3.47;1.30;;;;;18.90;101266.00;;;;5048636;28;20299;-76
2021/08/03 04:10:30;;;;;;;2.45;1.50;;;;;18.90;101275.00;;;;5046188;28;20223;-76
2021/08/03 04:12:59;;;;;;;3.40;1.45;;;;;18.90;101266.00;;;;5037730;28;20200;-76
2021/08/03 04:15:27;;;;;;;2.17;1.48;;;;;18.90;101267.00;;;;5042076;28;20929;-76
2021/08/03 04:17:54;;;;;;;3.58;1.30;;;;;18.90;101264.00;;;;5042754;28;20203;-77
2021/08/03 04:20:21;;;;;;;1.60;1.30;;;;;19.00;101266.00;;;;5046299;28;20195;-76
2021/08/03 04:22:51;;;;;;;2.10;1.40;;;;;19.00;101265.00;;;;5047304;28;20195;-76
2021/08/03 04:25:18;;;;;;;2.05;1.52;;;;;19.00;101269.00;;;;5032779;28;20204;-76
2021/08/03 04:27:46;;;;;;;1.60;1.30;;;;;19.00;101270.00;;;;5047891;28;20216;-76
2021/08/03 04:30:15;;;;;;;3.47;1.80;;;;;19.00;101266.00;;;;5034035;28;20220;-76
2021/08/03 04:32:43;;;;;;;2.58;1.10;;;;;19.10;101267.00;;;;5031203;28;20203;-76
2021/08/03 04:35:11;;;;;;;1.10;0.95;;;;;19.10;101269.00;;;;5042190;28;20227;-76
2021/08/03 04:37:39;;;;;;;2.20;1.10;;;;;19.20;101263.00;;;;5032819;28;20206;-76
2021/08/03 04:40:09;;;;;;;1.40;0.88;;;;;19.20;101261.00;;;;5046804;28;20196;-76
2021/08/03 04:42:37;;;;;;;1.25;0.90;;;;;19.20;101258.00;;;;5044504;28;20202;-77
2021/08/03 04:45:06;;;;;;;2.88;1.17;;;;;19.30;101263.00;;;;5045828;28;20211;-77
2021/08/03 04:47:33;;;;;;;1.52;0.93;;;;;19.30;101260.00;;;;5048090;28;20196;-76
2021/08/03 04:50:01;;;;;;;3.38;1.15;;;;;19.40;101262.00;;;;5047832;28;20215;-77
2021/08/03 04:52:28;;;;;;;1.33;0.98;;;;;19.40;101267.00;;;;5047367;28;20192;-76
2021/08/03 04:54:55;;;;;;;1.48;0.88;;;;;19.40;101266.00;;;;5048388;28;20194;-77
2021/08/03 04:57:24;;;;;;;1.10;0.75;;;;;19.40;101267.00;;;;5047355;28;20599;-76
2021/08/03 04:59:51;;;;;;;1.05;0.63;;;;;19.40;101267.00;;;;5034596;28;20601;-76
2021/08/03 05:02:18;;;;;;;3.25;0.90;;;;;19.50;101262.00;;;;5049472;28;20202;-77
2021/08/03 05:04:45;;;;;;;3.83;1.02;;;;;19.50;101259.00;;;;5039618;28;20196;-76
2021/08/03 05:07:13;;;;;;;1.88;1.27;;;;;19.50;101264.00;;;;5050799;28;20678;-77
2021/08/03 05:09:40;;;;;;;1.13;0.82;;;;;19.50;101267.00;;;;5047356;28;20223;-76
2021/08/03 05:12:07;;;;;;;2.35;1.15;;;;;19.60;101261.00;;;;5036611;28;20576;-76
2021/08/03 05:14:36;;;;;;;2.10;1.00;;;;;19.60;101267.00;;;;5045771;28;20196;-76
2021/08/03 05:17:03;;;;;;;3.70;1.05;;;;;19.60;101270.00;;;;5045921;28;20349;-76
2021/08/03 05:19:31;;;;;;;1.35;0.70;;;;;19.70;101269.00;;;;5038580;28;20589;-76
2021/08/03 05:21:58;;;;;;;2.33;1.08;;;;;19.70;101271.00;;;;5051319;28;20200;-76
2021/08/03 05:24:26;;;;;;;0.77;0.70;;;;;19.70;101268.00;;;;5050726;28;20196;-76
2021/08/03 05:26:54;;;;;;;1.10;0.80;;;;;19.70;101273.00;;;;5050684;28;20212;-76
2021/08/03 05:29:21;;;;;;;2.08;0.77;;;;;19.80;101267.00;;;;5050750;28;20220;-76
2021/08/03 05:31:49;;;;;;;1.65;1.10;;;;;19.80;101260.00;;;;5030899;28;20192;-77
2021/08/03 05:34:17;;;;;;;1.80;1.00;;;;;19.80;101268.00;;;;5046197;28;20224;-76
2021/08/03 05:36:44;;;;;;;1.80;1.05;;;;;19.80;101258.00;;;;5050604;28;20927;-77
2021/08/03 05:39:12;;;;;;;1.30;1.00;;;;;19.80;101267.00;;;;5040871;28;20196;-75
2021/08/03 05:41:39;;;;;;;1.00;0.88;;;;;19.90;101268.00;;;;5034136;28;20208;-75
2021/08/03 05:44:06;;;;;;;1.35;0.90;;;;;19.90;101265.00;;;;5041616;28;20189;-75
2021/08/03 05:46:33;;;;;;;2.55;1.33;;;;;19.90;101263.00;;;;5034747;28;20192;-76
2021/08/03 05:49:03;;;;;;;1.30;0.95;;;;;19.90;101258.00;;;;5035562;28;20201;-76
2021/08/03 05:51:30;;;;;;;6.72;1.10;;;;;20.00;101267.00;;;;5037166;28;20238;-77
2021/08/03 05:53:57;;;;;;;1.42;0.63;;;;;20.00;101252.00;;;;5033711;28;20205;-76
2021/08/03 05:56:24;;;;;;;1.77;0.93;;;;;20.00;101257.00;;;;5034761;28;20200;-77
2021/08/03 05:58:52;;;;;;;1.23;0.88;;;;;20.00;101255.00;;;;5038744;28;20379;-76
2021/08/03 06:01:19;;;;;;;1.45;1.13;;;;;20.00;101250.00;;;;5037462;28;20204;-79
2021/08/03 06:03:46;;;;;;;1.15;1.00;;;;;20.10;101250.00;;;;5039658;28;20199;-79
2021/08/03 06:06:16;;;;;;;1.10;0.82;;;;;20.00;101245.00;;;;5034570;28;20211;-78
2021/08/03 06:08:44;;;;;;;0.93;0.77;;;;;20.10;101252.00;;;;5042451;28;20210;-79
2021/08/03 06:11:16;;;;;;;2.95;0.85;;;;;20.10;101256.00;;;;5035037;28;20227;-78
2021/08/03 06:13:47;;;;;;;1.27;0.73;;;;;20.10;101250.00;;;;5042338;28;20239;-79
2021/08/03 06:16:17;;;;;;;3.17;1.00;;;;;20.10;101253.00;;;;5041501;28;20210;-79
2021/08/03 06:18:46;;;;;;;1.02;0.90;;;;;20.20;101260.00;;;;5050187;28;20232;-80
2021/08/03 06:21:15;;;;;;;3.10;0.90;;;;;20.20;101254.00;;;;5034031;28;20196;-80
2021/08/03 06:23:45;;;;;;;1.00;0.90;;;;;20.20;101251.00;;;;5048865;28;20200;-80
2021/08/03 06:26:13;;;;;;;7.15;0.90;;;;;20.20;101260.00;;;;5050816;28;20196;-80
2021/08/03 06:28:43;;;;;;;1.25;1.08;;;;;20.30;101256.00;;;;5042333;28;20223;-78
2021/08/03 06:31:12;;;;;;;1.52;0.77;;;;;20.30;101262.00;;;;5038089;28;20219;-79
2021/08/03 06:33:39;;;;;;;1.42;1.10;;;;;20.30;101260.00;;;;5036840;28;20202;-79
2021/08/03 06:36:06;;;;;;;1.27;0.60;;;;;20.30;101257.00;;;;5038352;28;20211;-79
2021/08/03 06:38:35;;;;;;;1.77;0.68;;;;;20.30;101250.00;;;;5037613;28;20214;-78
2021/08/03 06:41:06;;;;;;;1.23;0.70;;;;;20.30;101248.00;;;;5048003;28;20218;-78
2021/08/03 06:43:36;;;;;;;4.32;1.08;;;;;20.40;101249.00;;;;5037468;28;20196;-79
2021/08/03 06:46:07;;;;;;;1.88;0.90;;;;;20.40;101247.00;;;;5037667;28;21009;-78
2021/08/03 06:48:51;;;;;;;2.72;0.90;;;;;20.50;101252.00;;;;5038360;28;20685;-78
2021/08/03 06:51:19;;;;;;;2.70;0.95;;;;;20.50;101249.00;;;;5035781;28;20224;-78
2021/08/03 06:53:51;;;;;;;1.33;0.63;;;;;20.50;101245.00;;;;5033962;28;20215;-78
2021/08/03 06:56:22;;;;;;;3.60;1.15;;;;;20.50;101238.00;;;;5043581;28;20207;-78
2021/08/03 06:58:56;;;;;;;0.90;0.70;;;;;20.60;101242.00;;;;5045473;28;20191;-78
2021/08/03 07:01:35;;;;;;;1.20;0.70;;;;;20.60;101243.00;;;;5040944;28;20670;-78
2021/08/03 07:04:04;;;;;;;3.10;0.68;;;;;20.70;101246.00;;;;5039267;28;20446;-78
2021/08/03 07:06:33;;;;;;;2.13;0.70;;;;;20.70;101247.00;;;;5046510;28;20196;-79
2021/08/03 07:09:05;;;;;;;1.73;0.90;;;;;20.80;101251.00;;;;5042370;28;20234;-78
2021/08/03 07:11:33;;;;;;;5.20;1.25;;;;;20.80;101242.00;;;;5039624;28;20254;-77
2021/08/03 07:14:01;;;;;;;1.17;0.90;;;;;20.90;101244.00;;;;5043679;28;20234;-78
2021/08/03 07:16:29;;;;;;;1.40;0.98;;;;;20.90;101244.00;;;;5041569;28;20192;-78
2021/08/03 07:18:57;;;;;;;2.13;0.77;;;;;21.00;101246.00;;;;5042161;28;20202;-78
2021/08/03 07:21:28;;;;;;;2.40;0.90;;;;;21.00;101239.00;;;;5041951;28;20262;-79
2021/08/03 07:23:57;;;;;;;3.92;1.58;;;;;21.10;101233.00;;;;5046984;28;20202;-79
2021/08/03 07:26:27;;;;;;;2.22;1.02;;;;;21.20;101237.00;;;;5041009;28;20202;-78
2021/08/03 07:28:54;;;;;;;1.30;0.90;;;;;21.30;101240.00;;;;5042746;28;20223;-77
2021/08/03 07:31:21;;;;;;;4.40;0.95;;;;;21.40;101242.00;;;;5035626;28;20732;-78
2021/08/03 07:33:49;;;;;;;1.00;0.80;;;;;21.40;101241.00;;;;5038371;28;20208;-78
2021/08/03 07:36:16;;;;;;;0.90;0.77;;;;;21.50;101244.00;;;;5041215;28;20207;-78
2021/08/03 07:38:44;;;;;;;2.65;0.70;;;;;21.60;101246.00;;;;5040951;28;20200;-77
2021/08/03 07:41:12;;;;;;;0.98;0.60;;;;;21.70;101243.00;;;;5042648;28;20704;-78
2021/08/03 07:43:40;;;;;;;1.02;0.73;;;;;21.80;101239.00;;;;5046209;28;20200;-78
2021/08/03 07:46:08;;;;;;;1.38;0.85;;;;;21.90;101248.00;;;;5041107;28;20201;-78
2021/08/03 07:48:36;;;;;;;1.50;0.85;;;;;21.90;101246.00;;;;5036423;28;20295;-79
2021/08/03 07:51:03;;;;;;;1.10;0.70;;;;;22.00;101247.00;;;;5028670;28;20227;-79
2021/08/03 07:53:30;;;;;;;1.67;0.82;;;;;22.00;101261.00;;;;5040111;28;20569;-79
2021/08/03 07:55:58;;;;;;;1.00;0.70;;;;;22.10;101251.00;;;;5028195;28;20697;-78
2021/08/03 07:58:26;;;;;;;2.35;1.00;;;;;22.10;101255.00;;;;5047613;28;20207;-78
2021/08/03 08:00:54;;;;;;;3.75;0.93;;;;;22.20;101250.00;;;;5039501;28;20226;-79
2021/08/03 08:03:22;;;;;;;3.42;0.90;;;;;22.20;101251.00;;;;5042677;28;20206;-78
2021/08/03 08:05:49;;;;;;;2.90;0.93;;;;;22.30;101248.00;;;;5041131;28;20196;-78
2021/08/03 08:08:16;;;;;;;1.08;0.50;;;;;22.30;101245.00;;;;5035067;28;20693;-78
2021/08/03 08:10:43;;;;;;;1.27;0.57;;;;;22.30;101245.00;;;;5033944;28;20226;-77
2021/08/03 08:13:11;;;;;;;2.25;0.68;;;;;22.40;101247.00;;;;5036514;28;20196;-78
2021/08/03 08:15:38;;;;;;;1.30;0.80;;;;;22.40;101246.00;;;;5044539;28;20203;-79
2021/08/03 08:18:08;;;;;;;1.63;0.93;;;;;22.50;101246.00;;;;5032898;28;20578;-79
2021/08/03 08:20:36;;;;;;;2.03;0.90;;;;;22.50;101245.00;;;;5031895;28;20834;-78
2021/08/03 08:23:03;;;;;;;1.20;1.10;;;;;22.60;101243.00;;;;5042778;28;20195;-78
2021/08/03 08:25:31;;;;;;;1.52;0.90;;;;;22.70;101243.00;;;;5037222;28;20207;-77
2021/08/03 08:27:58;;;;;;;3.13;1.15;;;;;22.80;101242.00;;;;5033178;28;20226;-77
2021/08/03 08:30:26;;;;;;;1.23;1.00;;;;;22.90;101237.00;;;;5040209;28;20224;-78
2021/08/03 08:32:53;;;;;;;2.33;1.40;;;;;23.00;101239.00;;;;5047126;28;20242;-79
2021/08/03 08:35:22;;;;;;;2.55;1.40;;;;;23.20;101236.00;;;;5033107;28;20232;-78
2021/08/03 08:37:49;;;;;;;1.42;1.20;;;;;23.30;101236.00;;;;5031881;28;20211;-78
2021/08/03 08:40:17;;;;;;;2.20;1.25;;;;;23.40;101233.00;;;;5039974;28;20204;-78
2021/08/03 08:42:45;;;;;;;1.77;1.08;;;;;23.60;101239.00;;;;5045450;28;20907;-78
2021/08/03 08:45:13;;;;;;;4.35;1.63;;;;;23.70;101234.00;;;;5043588;28;20210;-76
2021/08/03 08:47:43;;;;;;;7.05;1.95;;;;;23.70;101244.00;;;;5042494;28;20208;-76
2021/08/03 08:50:12;;;;;;;2.47;1.52;;;;;23.80;101242.00;;;;5047142;28;20226;-77
2021/08/03 08:52:42;;;;;;;2.13;1.77;;;;;23.90;101238.00;;;;5049195;28;20231;-77
2021/08/03 08:55:12;;;;;;;2.85;1.50;;;;;23.90;101241.00;;;;5039361;28;20215;-77
2021/08/03 08:57:39;;;;;;;2.38;1.75;;;;;24.00;101250.00;;;;5037724;28;20207;-76
2021/08/03 09:00:09;;;;;;;1.95;1.38;;;;;24.00;101243.00;;;;5043379;28;20193;-77
2021/08/03 09:02:40;;;;;;;1.88;1.30;;;;;24.00;101246.00;;;;5032244;28;20209;-76
2021/08/03 09:05:08;;;;;;;1.83;1.38;;;;;24.10;101244.00;;;;5032608;28;20658;-77
2021/08/03 09:07:48;;;;;;;2.15;1.50;;;;;24.00;101245.00;;;;5031001;28;20204;-77
2021/08/03 09:10:32;;;;;;;5.60;2.22;;;;;24.00;101244.00;;;;5038506;28;20204;-76
2021/08/03 09:13:01;;;;;;;3.88;1.38;;;;;24.10;101245.00;;;;5032195;28;20235;-77
2021/08/03 09:15:29;;;;;;;1.42;1.23;;;;;24.10;101249.00;;;;5034241;28;20199;-77
2021/08/03 09:18:11;;;;;;;4.00;1.98;;;;;24.00;101242.00;;;;5046591;28;20203;-79
2021/08/03 09:20:39;;;;;;;2.00;1.40;;;;;24.10;101257.00;;;;5044135;28;20195;-78
2021/08/03 09:23:08;;;;;;;2.20;2.00;;;;;24.10;101253.00;;;;5043168;28;20211;-79
2021/08/03 09:25:35;;;;;;;3.13;1.85;;;;;24.10;101242.00;;;;5049439;28;20196;-79
2021/08/03 09:28:04;;;;;;;3.65;2.38;;;;;24.10;101239.00;;;;5049654;28;20212;-77
2021/08/03 09:30:32;;;;;;;5.75;2.38;;;;;24.10;101247.00;;;;5039659;28;20196;-77
2021/08/03 09:33:01;;;;;;;4.97;2.28;;;;;24.10;101251.00;;;;5031778;28;20215;-76
2021/08/03 09:35:29;;;;;;;3.03;2.40;;;;;24.20;101250.00;;;;5031217;28;20717;-77
2021/08/03 09:37:57;;;;;;;3.17;1.95;;;;;24.20;101253.00;;;;5031589;28;20750;-77
2021/08/03 09:40:28;;;;;;;4.10;2.28;;;;;24.20;101252.00;;;;5049541;28;20212;-77
2021/08/03 09:43:04;;;;;;;3.78;2.13;;;;;24.20;101250.00;;;;5035611;28;20196;-77
2021/08/03 09:45:33;;;;;;;2.10;1.75;;;;;24.30;101254.00;;;;5031418;28;20200;-76
2021/08/03 09:48:12;;;;;;;2.17;1.70;;;;;24.30;101244.00;;;;5031490;28;20197;-77
2021/08/03 09:50:54;;;;;;;4.68;2.17;;;;;24.40;101243.00;;;;5031487;28;20224;-77
2021/08/03 09:53:45;;;;;;;2.72;2.15;;;;;24.40;101245.00;;;;5031103;28;20200;-76
2021/08/03 09:56:16;;;;;;;2.72;2.28;;;;;24.60;101232.00;;;;5032350;28;20279;-76
2021/08/03 09:58:55;;;;;;;3.10;2.20;;;;;24.60;101241.00;;;;5036038;28;20219;-77
2021/08/03 10:01:24;;;;;;;2.47;2.15;;;;;24.80;101237.00;;;;5030835;28;20208;-77
2021/08/03 10:03:52;;;;;;;3.67;1.95;;;;;24.90;101233.00;;;;5037500;28;20211;-78
2021/08/03 10:06:20;;;;;;;3.53;2.25;;;;;24.90;101237.00;;;;5047057;28;20204;-77
2021/08/03 10:08:48;;;;;;;2.67;2.40;;;;;25.00;101230.00;;;;5039368;28;20199;-77
2021/08/03 10:11:18;;;;;;;2.58;2.05;;;;;25.00;101234.00;;;;5030838;28;20692;-77
2021/08/03 10:13:46;;;;;;;5.40;2.45;;;;;25.00;101227.00;;;;5035806;28;20677;-76
2021/08/03 10:16:17;;;;;;;5.40;2.20;;;;;25.00;101224.00;;;;5041178;28;20201;-77
2021/08/03 10:18:48;;;;;;;3.97;2.13;;;;;25.00;101226.00;;;;5030560;28;20203;-77
2021/08/03 10:21:30;;;;;;;7.03;2.75;;;;;24.90;101230.00;;;;5031270;28;20200;-77
2021/08/03 10:24:00;;;;;;;2.85;2.47;;;;;24.90;101239.00;;;;5029352;28;20198;-78
2021/08/03 10:26:29;;;;;;;2.90;2.00;;;;;24.90;101241.00;;;;5031066;28;20200;-78
2021/08/03 10:29:25;;;;;;;4.35;2.80;;;;;24.80;101238.00;;;;5035862;28;20227;-79
2021/08/03 10:31:53;;;;;;;2.35;2.15;;;;;24.80;101241.00;;;;5046203;28;20227;-78
2021/08/03 10:34:58;;;;;;;3.83;2.42;;;;;24.70;101235.00;;;;5045671;28;20610;-77
2021/08/03 10:37:26;;;;;;;3.53;2.95;;;;;24.70;101244.00;;;;5029723;28;20635;-78
2021/08/03 10:39:55;;;;;;;4.35;3.63;;;;;24.70;101239.00;;;;5044357;28;20673;-77
2021/08/03 10:42:24;;;;;;;4.70;3.58;;;;;24.60;101240.00;;;;5043619;28;20242;-78
2021/08/03 10:44:54;;;;;;;5.05;3.03;;;;;24.60;101242.00;;;;5046671;28;20811;-78
2021/08/03 10:47:46;;;;;;;4.18;3.08;;;;;24.40;101242.00;;;;5040028;28;20223;-77
2021/08/03 10:50:17;;;;;;;5.93;2.72;;;;;24.50;101239.00;;;;5038431;28;20223;-78
2021/08/03 10:52:54;;;;;;;4.72;3.45;;;;;24.40;101239.00;;;;5034529;28;20228;-78
2021/08/03 10:55:35;;;;;;;3.83;3.22;;;;;24.30;101246.00;;;;5045310;28;20203;-78
2021/08/03 10:58:22;;;;;;;4.65;3.78;;;;;24.20;101245.00;;;;5028920;28;20200;-79
2021/08/03 11:00:51;;;;;;;8.00;4.38;;;;;24.30;101242.00;;;;5028714;28;20650;-78
2021/08/03 11:03:44;;;;;;;5.78;4.68;;;;;24.10;101257.00;;;;5029958;28;20204;-78
2021/08/03 11:06:34;;;;;;;5.10;4.07;;;;;24.00;101243.00;;;;5039280;28;20204;-78
2021/08/03 11:09:02;;;;;;;4.93;3.95;;;;;24.10;101249.00;;;;5028275;28;20235;-78
2021/08/03 11:11:30;;;;;;;5.15;3.78;;;;;24.00;101246.00;;;;5029038;28;20592;-78
2021/08/03 11:14:04;;;;;;;4.43;4.03;;;;;24.00;101242.00;;;;5032150;28;20970;-78
2021/08/03 11:16:48;;;;;;;7.28;5.00;;;;;23.80;101254.00;;;;5028991;28;20338;-80
2021/08/03 11:19:34;;;;;;;5.15;4.45;;;;;23.80;101249.00;;;;5028862;28;20211;-77
2021/08/03 11:22:03;;;;;;;4.03;3.63;;;;;23.80;101249.00;;;;5042885;28;20222;-78
2021/08/03 11:24:42;;;;;;;7.93;4.57;;;;;23.80;101249.00;;;;5048233;28;20199;-78
2021/08/03 11:27:10;;;;;;;4.47;4.07;;;;;23.80;101246.00;;;;5044356;28;20979;-78
2021/08/03 11:29:41;;;;;;;7.50;4.63;;;;;23.70;101246.00;;;;5028394;28;20957;-78
2021/08/03 11:32:10;;;;;;;6.07;5.07;;;;;23.70;101235.00;;;;5036867;28;20231;-78
2021/08/03 11:34:39;;;;;;;6.05;5.22;;;;;23.70;101231.00;;;;5035284;28;20639;-78
2021/08/03 11:37:09;;;;;;;6.53;4.53;;;;;23.60;101238.00;;;;5027941;28;20200;-78
2021/08/03 11:39:39;;;;;;;9.30;5.15;;;;;23.60;101227.00;;;;5035996;28;20199;-79
2021/08/03 11:42:09;;;;;;;6.20;5.18;;;;;23.50;101226.00;;;;5027897;28;20211;-78
2021/08/03 11:44:38;;;;;;;5.95;4.30;;;;;23.50;101230.00;;;;5041222;28;20583;-78
2021/08/03 11:47:08;;;;;;;5.65;4.57;;;;;23.50;101234.00;;;;5034667;28;20203;-78
2021/08/03 11:49:38;;;;;;;6.35;4.70;;;;;23.40;101224.00;;;;5047923;28;20199;-78
2021/08/03 11:52:14;;;;;;;6.45;4.60;;;;;23.40;101224.00;;;;5039231;28;20314;-78
2021/08/03 11:54:43;;;;;;;5.57;4.13;;;;;23.40;101228.00;;;;5038276;28;20198;-76
2021/08/03 11:57:34;;;;;;;5.70;5.05;;;;;23.20;101231.00;;;;5033031;28;20215;-76
2021/08/03 12:00:13;;;;;;;6.22;4.60;;;;;23.20;101227.00;;;;5042086;28;20219;-77
2021/08/03 12:02:41;;;;;;;6.07;4.43;;;;;23.20;101232.00;;;;5039411;28;20200;-78
2021/08/03 12:05:17;;;;;;;6.53;4.68;;;;;23.20;101229.00;;;;5031234;28;20208;-78
2021/08/03 12:07:57;;;;;;;10.98;5.32;;;;;23.10;101231.00;;;;5027791;28;20219;-78
2021/08/03 12:10:27;;;;;;;6.55;5.28;;;;;23.20;101228.00;;;;5043624;28;20196;-78
2021/08/03 12:12:54;;;;;;;5.32;4.35;;;;;23.20;101234.00;;;;5031475;28;20231;-78
2021/08/03 12:15:24;;;;;;;4.95;4.15;;;;;23.10;101230.00;;;;5036133;28;20700;-77
2021/08/03 12:18:03;;;;;;;7.78;5.30;;;;;23.10;101233.00;;;;5029912;28;20572;-78
2021/08/03 12:20:33;;;;;;;5.82;4.95;;;;;23.10;101228.00;;;;5044821;28;20195;-77
2021/08/03 12:23:19;;;;;;;6.60;5.50;;;;;23.00;101221.00;;;;5032746;28;20200;-78